Terminal Aerodrome Forecast
Issued by NWS

Home | Current Version | Previous Version | Text Only | Print | Product List | Glossary On
Versions: 1 2 3 4 5 6 7 8 9 10 11 12 13 14 15 16 17 18 19 20 21 22 23 24 25 26 27 28 29 30 31 32 33
000
FTUS42 KCAE 030527
TAFOGB
TAF
KOGB 030527Z 0306/0406 13005KT P6SM BKN060 BKN150
     FM030800 VRB03KT 3SM BR VCSH BKN006
     FM031400 VRB04KT P6SM VCSH BKN015
      TEMPO 0314/0316 2SM SHRA
     FM031600 16006KT P6SM VCSH BKN035
      TEMPO 0316/0320 2SM SHRA
     FM040000 VRB03KT P6SM SCT060=

USA.gov is the U.S. government's official web portal to all federal, state and local government web resources and services.